<?xml version="1.0" encoding="UTF-8" standalone="no" ?>
<gpx xmlns="http://www.topografix.com/GPX/1/1" xmlns:xsi="http://www.w3.org/2001/XMLSchema-instance" xsi:schemaLocation="http://www.topografix.com/GPX/1/1 http://www.topografix.com/GPX/1/1/gpx.xsd" version="1.1" creator="VisuGPX - https://www.visugpx.com">
  <metadata>
    <name>Hautefage La Tour (Bonneval) 9.3 km</name>
  </metadata>
  <trk>
    <name><![CDATA[Randonnée du 22/10/2020 à 23:34]]></name>
    <extensions>
      <line xmlns="http://www.topografix.com/GPX/gpx_style/0/2">
        <color>0000FF</color>
        <width>4</width>
      </line>
    </extensions>
    <trkseg>
      <trkpt lat="44.35843" lon="0.76063">
        <ele>150</ele>
        <time>2020-10-23T19:46:36+02:00</time>
      </trkpt>
      <trkpt lat="44.35833" lon="0.76072">
        <ele>152</ele>
        <time>2020-10-23T19:46:31+02:00</time>
      </trkpt>
      <trkpt lat="44.35807" lon="0.76069">
        <ele>154</ele>
        <time>2020-10-23T19:46:26+02:00</time>
      </trkpt>
      <trkpt lat="44.35802" lon="0.76055">
        <ele>153</ele>
        <time>2020-10-23T19:46:21+02:00</time>
      </trkpt>
      <trkpt lat="44.35803" lon="0.76036">
        <ele>150</ele>
        <time>2020-10-23T19:46:16+02:00</time>
      </trkpt>
      <trkpt lat="44.35805" lon="0.76007">
        <ele>146</ele>
        <time>2020-10-23T19:46:11+02:00</time>
      </trkpt>
      <trkpt lat="44.35815" lon="0.75997">
        <ele>144</ele>
        <time>2020-10-23T19:46:06+02:00</time>
      </trkpt>
      <trkpt lat="44.35826" lon="0.75997">
        <ele>144</ele>
        <time>2020-10-23T19:46:01+02:00</time>
      </trkpt>
      <trkpt lat="44.35829" lon="0.75982">
        <ele>143</ele>
        <time>2020-10-23T19:45:56+02:00</time>
      </trkpt>
      <trkpt lat="44.35843" lon="0.7594">
        <ele>140</ele>
        <time>2020-10-23T19:45:51+02:00</time>
      </trkpt>
      <trkpt lat="44.35854" lon="0.75889">
        <ele>138</ele>
        <time>2020-10-23T19:45:46+02:00</time>
      </trkpt>
      <trkpt lat="44.35863" lon="0.75859">
        <ele>139</ele>
        <time>2020-10-23T19:45:41+02:00</time>
      </trkpt>
      <trkpt lat="44.35869" lon="0.75842">
        <ele>139</ele>
        <time>2020-10-23T19:45:36+02:00</time>
      </trkpt>
      <trkpt lat="44.35878" lon="0.75807">
        <ele>142</ele>
        <time>2020-10-23T19:45:31+02:00</time>
      </trkpt>
      <trkpt lat="44.3589" lon="0.75764">
        <ele>146</ele>
        <time>2020-10-23T19:45:26+02:00</time>
      </trkpt>
      <trkpt lat="44.35896" lon="0.75744">
        <ele>148</ele>
        <time>2020-10-23T19:45:21+02:00</time>
      </trkpt>
      <trkpt lat="44.35906" lon="0.7572">
        <ele>152</ele>
        <time>2020-10-23T19:45:16+02:00</time>
      </trkpt>
      <trkpt lat="44.35907" lon="0.75693">
        <ele>156</ele>
        <time>2020-10-23T19:45:11+02:00</time>
      </trkpt>
      <trkpt lat="44.3591" lon="0.75665">
        <ele>159</ele>
        <time>2020-10-23T19:45:06+02:00</time>
      </trkpt>
      <trkpt lat="44.35913" lon="0.75637">
        <ele>161</ele>
        <time>2020-10-23T19:45:01+02:00</time>
      </trkpt>
      <trkpt lat="44.35911" lon="0.75621">
        <ele>163</ele>
        <time>2020-10-23T19:44:56+02:00</time>
      </trkpt>
      <trkpt lat="44.35907" lon="0.75615">
        <ele>164</ele>
        <time>2020-10-23T19:44:51+02:00</time>
      </trkpt>
      <trkpt lat="44.35899" lon="0.75625">
        <ele>165</ele>
        <time>2020-10-23T19:44:46+02:00</time>
      </trkpt>
      <trkpt lat="44.3589" lon="0.75639">
        <ele>165</ele>
        <time>2020-10-23T19:44:41+02:00</time>
      </trkpt>
      <trkpt lat="44.3588" lon="0.75652">
        <ele>166</ele>
        <time>2020-10-23T19:44:36+02:00</time>
      </trkpt>
      <trkpt lat="44.35867" lon="0.75663">
        <ele>166</ele>
        <time>2020-10-23T19:44:31+02:00</time>
      </trkpt>
      <trkpt lat="44.35836" lon="0.75658">
        <ele>172</ele>
        <time>2020-10-23T19:44:26+02:00</time>
      </trkpt>
      <trkpt lat="44.35816" lon="0.75647">
        <ele>173</ele>
        <time>2020-10-23T19:44:21+02:00</time>
      </trkpt>
      <trkpt lat="44.35835" lon="0.75636">
        <ele>176</ele>
        <time>2020-10-23T19:44:16+02:00</time>
      </trkpt>
      <trkpt lat="44.35818" lon="0.75618">
        <ele>179</ele>
        <time>2020-10-23T19:44:11+02:00</time>
      </trkpt>
      <trkpt lat="44.35792" lon="0.75593">
        <ele>183</ele>
        <time>2020-10-23T19:44:06+02:00</time>
      </trkpt>
      <trkpt lat="44.35764" lon="0.75574">
        <ele>186</ele>
        <time>2020-10-23T19:44:01+02:00</time>
      </trkpt>
      <trkpt lat="44.35738" lon="0.75557">
        <ele>187</ele>
        <time>2020-10-23T19:43:56+02:00</time>
      </trkpt>
      <trkpt lat="44.357" lon="0.75533">
        <ele>188</ele>
        <time>2020-10-23T19:43:51+02:00</time>
      </trkpt>
      <trkpt lat="44.35664" lon="0.7552">
        <ele>188</ele>
        <time>2020-10-23T19:43:46+02:00</time>
      </trkpt>
      <trkpt lat="44.35633" lon="0.75522">
        <ele>187</ele>
        <time>2020-10-23T19:43:41+02:00</time>
      </trkpt>
      <trkpt lat="44.35572" lon="0.75519">
        <ele>185</ele>
        <time>2020-10-23T19:43:36+02:00</time>
      </trkpt>
      <trkpt lat="44.35526" lon="0.75514">
        <ele>186</ele>
        <time>2020-10-23T19:43:31+02:00</time>
      </trkpt>
      <trkpt lat="44.35487" lon="0.75514">
        <ele>187</ele>
        <time>2020-10-23T19:43:26+02:00</time>
      </trkpt>
      <trkpt lat="44.35441" lon="0.75515">
        <ele>187</ele>
        <time>2020-10-23T19:43:21+02:00</time>
      </trkpt>
      <trkpt lat="44.35394" lon="0.75515">
        <ele>189</ele>
        <time>2020-10-23T19:43:16+02:00</time>
      </trkpt>
      <trkpt lat="44.35368" lon="0.75514">
        <ele>191</ele>
        <time>2020-10-23T19:43:11+02:00</time>
      </trkpt>
      <trkpt lat="44.3537" lon="0.75489">
        <ele>193</ele>
        <time>2020-10-23T19:43:06+02:00</time>
      </trkpt>
      <trkpt lat="44.35372" lon="0.7543">
        <ele>197</ele>
        <time>2020-10-23T19:43:01+02:00</time>
      </trkpt>
      <trkpt lat="44.35394" lon="0.75362">
        <ele>198</ele>
        <time>2020-10-23T19:42:56+02:00</time>
      </trkpt>
      <trkpt lat="44.3541" lon="0.75312">
        <ele>198</ele>
        <time>2020-10-23T19:42:51+02:00</time>
      </trkpt>
      <trkpt lat="44.35402" lon="0.75299">
        <ele>198</ele>
        <time>2020-10-23T19:42:46+02:00</time>
      </trkpt>
      <trkpt lat="44.35417" lon="0.75257">
        <ele>196</ele>
        <time>2020-10-23T19:42:41+02:00</time>
      </trkpt>
      <trkpt lat="44.35428" lon="0.75229">
        <ele>195</ele>
        <time>2020-10-23T19:42:36+02:00</time>
      </trkpt>
      <trkpt lat="44.35449" lon="0.75214">
        <ele>193</ele>
        <time>2020-10-23T19:42:31+02:00</time>
      </trkpt>
      <trkpt lat="44.35475" lon="0.75156">
        <ele>191</ele>
        <time>2020-10-23T19:42:26+02:00</time>
      </trkpt>
      <trkpt lat="44.35495" lon="0.75127">
        <ele>190</ele>
        <time>2020-10-23T19:42:21+02:00</time>
      </trkpt>
      <trkpt lat="44.35507" lon="0.75103">
        <ele>190</ele>
        <time>2020-10-23T19:42:16+02:00</time>
      </trkpt>
      <trkpt lat="44.35497" lon="0.75075">
        <ele>190</ele>
        <time>2020-10-23T19:42:11+02:00</time>
      </trkpt>
      <trkpt lat="44.35494" lon="0.75058">
        <ele>191</ele>
        <time>2020-10-23T19:42:06+02:00</time>
      </trkpt>
      <trkpt lat="44.35498" lon="0.75034">
        <ele>191</ele>
        <time>2020-10-23T19:42:01+02:00</time>
      </trkpt>
      <trkpt lat="44.35508" lon="0.75021">
        <ele>192</ele>
        <time>2020-10-23T19:41:56+02:00</time>
      </trkpt>
      <trkpt lat="44.35532" lon="0.75022">
        <ele>192</ele>
        <time>2020-10-23T19:41:51+02:00</time>
      </trkpt>
      <trkpt lat="44.35545" lon="0.75031">
        <ele>191</ele>
        <time>2020-10-23T19:41:46+02:00</time>
      </trkpt>
      <trkpt lat="44.35568" lon="0.7505">
        <ele>190</ele>
        <time>2020-10-23T19:41:41+02:00</time>
      </trkpt>
      <trkpt lat="44.35593" lon="0.75057">
        <ele>189</ele>
        <time>2020-10-23T19:41:36+02:00</time>
      </trkpt>
      <trkpt lat="44.35617" lon="0.75058">
        <ele>189</ele>
        <time>2020-10-23T19:41:31+02:00</time>
      </trkpt>
      <trkpt lat="44.35656" lon="0.75056">
        <ele>189</ele>
        <time>2020-10-23T19:41:26+02:00</time>
      </trkpt>
      <trkpt lat="44.3568" lon="0.75048">
        <ele>189</ele>
        <time>2020-10-23T19:41:21+02:00</time>
      </trkpt>
      <trkpt lat="44.35722" lon="0.75031">
        <ele>188</ele>
        <time>2020-10-23T19:41:16+02:00</time>
      </trkpt>
      <trkpt lat="44.35749" lon="0.7501">
        <ele>188</ele>
        <time>2020-10-23T19:41:11+02:00</time>
      </trkpt>
      <trkpt lat="44.35778" lon="0.74979">
        <ele>190</ele>
        <time>2020-10-23T19:41:06+02:00</time>
      </trkpt>
      <trkpt lat="44.35788" lon="0.74968">
        <ele>191</ele>
        <time>2020-10-23T19:41:01+02:00</time>
      </trkpt>
      <trkpt lat="44.35802" lon="0.74958">
        <ele>192</ele>
        <time>2020-10-23T19:40:56+02:00</time>
      </trkpt>
      <trkpt lat="44.35848" lon="0.74938">
        <ele>194</ele>
        <time>2020-10-23T19:40:51+02:00</time>
      </trkpt>
      <trkpt lat="44.35893" lon="0.74918">
        <ele>192</ele>
        <time>2020-10-23T19:40:46+02:00</time>
      </trkpt>
      <trkpt lat="44.3583" lon="0.74711">
        <ele>205</ele>
        <time>2020-10-23T19:40:41+02:00</time>
      </trkpt>
      <trkpt lat="44.35747" lon="0.74501">
        <ele>205</ele>
        <time>2020-10-23T19:40:36+02:00</time>
      </trkpt>
      <trkpt lat="44.35722" lon="0.74506">
        <ele>205</ele>
        <time>2020-10-23T19:40:31+02:00</time>
      </trkpt>
      <trkpt lat="44.35694" lon="0.74502">
        <ele>205</ele>
        <time>2020-10-23T19:40:26+02:00</time>
      </trkpt>
      <trkpt lat="44.35638" lon="0.7448">
        <ele>204</ele>
        <time>2020-10-23T19:40:21+02:00</time>
      </trkpt>
      <trkpt lat="44.35593" lon="0.74467">
        <ele>203</ele>
        <time>2020-10-23T19:40:16+02:00</time>
      </trkpt>
      <trkpt lat="44.35548" lon="0.74453">
        <ele>202</ele>
        <time>2020-10-23T19:40:11+02:00</time>
      </trkpt>
      <trkpt lat="44.35533" lon="0.74468">
        <ele>203</ele>
        <time>2020-10-23T19:40:06+02:00</time>
      </trkpt>
      <trkpt lat="44.35512" lon="0.74479">
        <ele>204</ele>
        <time>2020-10-23T19:40:01+02:00</time>
      </trkpt>
      <trkpt lat="44.35479" lon="0.74489">
        <ele>205</ele>
        <time>2020-10-23T19:39:56+02:00</time>
      </trkpt>
      <trkpt lat="44.35455" lon="0.74495">
        <ele>205</ele>
        <time>2020-10-23T19:39:51+02:00</time>
      </trkpt>
      <trkpt lat="44.35413" lon="0.74502">
        <ele>206</ele>
        <time>2020-10-23T19:39:46+02:00</time>
      </trkpt>
      <trkpt lat="44.35345" lon="0.7451">
        <ele>205</ele>
        <time>2020-10-23T19:39:41+02:00</time>
      </trkpt>
      <trkpt lat="44.3529" lon="0.74518">
        <ele>204</ele>
        <time>2020-10-23T19:39:36+02:00</time>
      </trkpt>
      <trkpt lat="44.35255" lon="0.74527">
        <ele>202</ele>
        <time>2020-10-23T19:39:31+02:00</time>
      </trkpt>
      <trkpt lat="44.35198" lon="0.74543">
        <ele>203</ele>
        <time>2020-10-23T19:39:26+02:00</time>
      </trkpt>
      <trkpt lat="44.35105" lon="0.74561">
        <ele>204</ele>
        <time>2020-10-23T19:39:21+02:00</time>
      </trkpt>
      <trkpt lat="44.35009" lon="0.74589">
        <ele>206</ele>
        <time>2020-10-23T19:39:16+02:00</time>
      </trkpt>
      <trkpt lat="44.3498" lon="0.74598">
        <ele>206</ele>
        <time>2020-10-23T19:39:11+02:00</time>
      </trkpt>
      <trkpt lat="44.34934" lon="0.74618">
        <ele>207</ele>
        <time>2020-10-23T19:39:06+02:00</time>
      </trkpt>
      <trkpt lat="44.3489" lon="0.7464">
        <ele>208</ele>
        <time>2020-10-23T19:39:01+02:00</time>
      </trkpt>
      <trkpt lat="44.34844" lon="0.74666">
        <ele>209</ele>
        <time>2020-10-23T19:38:56+02:00</time>
      </trkpt>
      <trkpt lat="44.34806" lon="0.74696">
        <ele>209</ele>
        <time>2020-10-23T19:38:51+02:00</time>
      </trkpt>
      <trkpt lat="44.34747" lon="0.74749">
        <ele>210</ele>
        <time>2020-10-23T19:38:46+02:00</time>
      </trkpt>
      <trkpt lat="44.34685" lon="0.74796">
        <ele>210</ele>
        <time>2020-10-23T19:38:41+02:00</time>
      </trkpt>
      <trkpt lat="44.34649" lon="0.74824">
        <ele>210</ele>
        <time>2020-10-23T19:38:36+02:00</time>
      </trkpt>
      <trkpt lat="44.34599" lon="0.7485">
        <ele>210</ele>
        <time>2020-10-23T19:38:31+02:00</time>
      </trkpt>
      <trkpt lat="44.34541" lon="0.74906">
        <ele>211</ele>
        <time>2020-10-23T19:38:26+02:00</time>
      </trkpt>
      <trkpt lat="44.34501" lon="0.74946">
        <ele>211</ele>
        <time>2020-10-23T19:38:21+02:00</time>
      </trkpt>
      <trkpt lat="44.3442" lon="0.75048">
        <ele>210</ele>
        <time>2020-10-23T19:38:16+02:00</time>
      </trkpt>
      <trkpt lat="44.34385" lon="0.7509">
        <ele>210</ele>
        <time>2020-10-23T19:38:11+02:00</time>
      </trkpt>
      <trkpt lat="44.34352" lon="0.75144">
        <ele>211</ele>
        <time>2020-10-23T19:38:06+02:00</time>
      </trkpt>
      <trkpt lat="44.34326" lon="0.75181">
        <ele>210</ele>
        <time>2020-10-23T19:38:01+02:00</time>
      </trkpt>
      <trkpt lat="44.3431" lon="0.75217">
        <ele>209</ele>
        <time>2020-10-23T19:37:56+02:00</time>
      </trkpt>
      <trkpt lat="44.34292" lon="0.75249">
        <ele>208</ele>
        <time>2020-10-23T19:37:51+02:00</time>
      </trkpt>
      <trkpt lat="44.34268" lon="0.75314">
        <ele>206</ele>
        <time>2020-10-23T19:37:46+02:00</time>
      </trkpt>
      <trkpt lat="44.34251" lon="0.75351">
        <ele>206</ele>
        <time>2020-10-23T19:37:41+02:00</time>
      </trkpt>
      <trkpt lat="44.34233" lon="0.75381">
        <ele>206</ele>
        <time>2020-10-23T19:37:36+02:00</time>
      </trkpt>
      <trkpt lat="44.34244" lon="0.75408">
        <ele>207</ele>
        <time>2020-10-23T19:37:31+02:00</time>
      </trkpt>
      <trkpt lat="44.34249" lon="0.75463">
        <ele>209</ele>
        <time>2020-10-23T19:37:26+02:00</time>
      </trkpt>
      <trkpt lat="44.34246" lon="0.75529">
        <ele>209</ele>
        <time>2020-10-23T19:37:21+02:00</time>
      </trkpt>
      <trkpt lat="44.34242" lon="0.75614">
        <ele>209</ele>
        <time>2020-10-23T19:37:16+02:00</time>
      </trkpt>
      <trkpt lat="44.3424" lon="0.75701">
        <ele>208</ele>
        <time>2020-10-23T19:37:11+02:00</time>
      </trkpt>
      <trkpt lat="44.34236" lon="0.75782">
        <ele>207</ele>
        <time>2020-10-23T19:37:06+02:00</time>
      </trkpt>
      <trkpt lat="44.34234" lon="0.75837">
        <ele>205</ele>
        <time>2020-10-23T19:37:01+02:00</time>
      </trkpt>
      <trkpt lat="44.34231" lon="0.75903">
        <ele>202</ele>
        <time>2020-10-23T19:36:56+02:00</time>
      </trkpt>
      <trkpt lat="44.34218" lon="0.75926">
        <ele>201</ele>
        <time>2020-10-23T19:36:51+02:00</time>
      </trkpt>
      <trkpt lat="44.34201" lon="0.75952">
        <ele>199</ele>
        <time>2020-10-23T19:36:46+02:00</time>
      </trkpt>
      <trkpt lat="44.34188" lon="0.75986">
        <ele>196</ele>
        <time>2020-10-23T19:36:41+02:00</time>
      </trkpt>
      <trkpt lat="44.34192" lon="0.76045">
        <ele>191</ele>
        <time>2020-10-23T19:36:36+02:00</time>
      </trkpt>
      <trkpt lat="44.3419" lon="0.76093">
        <ele>187</ele>
        <time>2020-10-23T19:36:31+02:00</time>
      </trkpt>
      <trkpt lat="44.34192" lon="0.7614">
        <ele>183</ele>
        <time>2020-10-23T19:36:26+02:00</time>
      </trkpt>
      <trkpt lat="44.34193" lon="0.76178">
        <ele>180</ele>
        <time>2020-10-23T19:36:21+02:00</time>
      </trkpt>
      <trkpt lat="44.3419" lon="0.76218">
        <ele>176</ele>
        <time>2020-10-23T19:36:16+02:00</time>
      </trkpt>
      <trkpt lat="44.34191" lon="0.76253">
        <ele>174</ele>
        <time>2020-10-23T19:36:11+02:00</time>
      </trkpt>
      <trkpt lat="44.34191" lon="0.76293">
        <ele>173</ele>
        <time>2020-10-23T19:36:06+02:00</time>
      </trkpt>
      <trkpt lat="44.34191" lon="0.76321">
        <ele>171</ele>
        <time>2020-10-23T19:36:01+02:00</time>
      </trkpt>
      <trkpt lat="44.34182" lon="0.76299">
        <ele>169</ele>
        <time>2020-10-23T19:35:56+02:00</time>
      </trkpt>
      <trkpt lat="44.34178" lon="0.7628">
        <ele>169</ele>
        <time>2020-10-23T19:35:51+02:00</time>
      </trkpt>
      <trkpt lat="44.34169" lon="0.76293">
        <ele>165</ele>
        <time>2020-10-23T19:35:46+02:00</time>
      </trkpt>
      <trkpt lat="44.34155" lon="0.76337">
        <ele>161</ele>
        <time>2020-10-23T19:35:41+02:00</time>
      </trkpt>
      <trkpt lat="44.34144" lon="0.76367">
        <ele>158</ele>
        <time>2020-10-23T19:35:36+02:00</time>
      </trkpt>
      <trkpt lat="44.3413" lon="0.76396">
        <ele>154</ele>
        <time>2020-10-23T19:35:31+02:00</time>
      </trkpt>
      <trkpt lat="44.34119" lon="0.76423">
        <ele>149</ele>
        <time>2020-10-23T19:35:26+02:00</time>
      </trkpt>
      <trkpt lat="44.34101" lon="0.76457">
        <ele>144</ele>
        <time>2020-10-23T19:35:21+02:00</time>
      </trkpt>
      <trkpt lat="44.34081" lon="0.76503">
        <ele>137</ele>
        <time>2020-10-23T19:35:16+02:00</time>
      </trkpt>
      <trkpt lat="44.34073" lon="0.76531">
        <ele>135</ele>
        <time>2020-10-23T19:35:11+02:00</time>
      </trkpt>
      <trkpt lat="44.3407" lon="0.76559">
        <ele>135</ele>
        <time>2020-10-23T19:35:06+02:00</time>
      </trkpt>
      <trkpt lat="44.34069" lon="0.76583">
        <ele>134</ele>
        <time>2020-10-23T19:35:01+02:00</time>
      </trkpt>
      <trkpt lat="44.3408" lon="0.76608">
        <ele>135</ele>
        <time>2020-10-23T19:34:56+02:00</time>
      </trkpt>
      <trkpt lat="44.34093" lon="0.76635">
        <ele>138</ele>
        <time>2020-10-23T19:34:51+02:00</time>
      </trkpt>
      <trkpt lat="44.34108" lon="0.76663">
        <ele>142</ele>
        <time>2020-10-23T19:34:46+02:00</time>
      </trkpt>
      <trkpt lat="44.34124" lon="0.76707">
        <ele>140</ele>
        <time>2020-10-23T19:34:41+02:00</time>
      </trkpt>
      <trkpt lat="44.34135" lon="0.76752">
        <ele>135</ele>
        <time>2020-10-23T19:34:36+02:00</time>
      </trkpt>
      <trkpt lat="44.34144" lon="0.76798">
        <ele>130</ele>
        <time>2020-10-23T19:34:31+02:00</time>
      </trkpt>
      <trkpt lat="44.3415" lon="0.76829">
        <ele>126</ele>
        <time>2020-10-23T19:34:26+02:00</time>
      </trkpt>
      <trkpt lat="44.34184" lon="0.76824">
        <ele>129</ele>
        <time>2020-10-23T19:34:21+02:00</time>
      </trkpt>
      <trkpt lat="44.34198" lon="0.76839">
        <ele>127</ele>
        <time>2020-10-23T19:34:16+02:00</time>
      </trkpt>
      <trkpt lat="44.34215" lon="0.76844">
        <ele>128</ele>
        <time>2020-10-23T19:34:11+02:00</time>
      </trkpt>
      <trkpt lat="44.34234" lon="0.76842">
        <ele>129</ele>
        <time>2020-10-23T19:34:06+02:00</time>
      </trkpt>
      <trkpt lat="44.34246" lon="0.76845">
        <ele>129</ele>
        <time>2020-10-23T19:34:01+02:00</time>
      </trkpt>
      <trkpt lat="44.34254" lon="0.76864">
        <ele>127</ele>
        <time>2020-10-23T19:33:56+02:00</time>
      </trkpt>
      <trkpt lat="44.34263" lon="0.76885">
        <ele>124</ele>
        <time>2020-10-23T19:33:51+02:00</time>
      </trkpt>
      <trkpt lat="44.34278" lon="0.76921">
        <ele>120</ele>
        <time>2020-10-23T19:33:46+02:00</time>
      </trkpt>
      <trkpt lat="44.34288" lon="0.76966">
        <ele>118</ele>
        <time>2020-10-23T19:33:41+02:00</time>
      </trkpt>
      <trkpt lat="44.34298" lon="0.77024">
        <ele>118</ele>
        <time>2020-10-23T19:33:36+02:00</time>
      </trkpt>
      <trkpt lat="44.34335" lon="0.77009">
        <ele>120</ele>
        <time>2020-10-23T19:33:31+02:00</time>
      </trkpt>
      <trkpt lat="44.34348" lon="0.77018">
        <ele>121</ele>
        <time>2020-10-23T19:33:26+02:00</time>
      </trkpt>
      <trkpt lat="44.34355" lon="0.77032">
        <ele>123</ele>
        <time>2020-10-23T19:33:21+02:00</time>
      </trkpt>
      <trkpt lat="44.34375" lon="0.77066">
        <ele>129</ele>
        <time>2020-10-23T19:33:16+02:00</time>
      </trkpt>
      <trkpt lat="44.34391" lon="0.77072">
        <ele>132</ele>
        <time>2020-10-23T19:33:11+02:00</time>
      </trkpt>
      <trkpt lat="44.34403" lon="0.77074">
        <ele>134</ele>
        <time>2020-10-23T19:33:06+02:00</time>
      </trkpt>
      <trkpt lat="44.34448" lon="0.7705">
        <ele>137</ele>
        <time>2020-10-23T19:33:01+02:00</time>
      </trkpt>
      <trkpt lat="44.34488" lon="0.77034">
        <ele>142</ele>
        <time>2020-10-23T19:32:56+02:00</time>
      </trkpt>
      <trkpt lat="44.34527" lon="0.77013">
        <ele>145</ele>
        <time>2020-10-23T19:32:51+02:00</time>
      </trkpt>
      <trkpt lat="44.34562" lon="0.76996">
        <ele>148</ele>
        <time>2020-10-23T19:32:46+02:00</time>
      </trkpt>
      <trkpt lat="44.34587" lon="0.76981">
        <ele>151</ele>
        <time>2020-10-23T19:32:41+02:00</time>
      </trkpt>
      <trkpt lat="44.34607" lon="0.76959">
        <ele>154</ele>
        <time>2020-10-23T19:32:36+02:00</time>
      </trkpt>
      <trkpt lat="44.34626" lon="0.76924">
        <ele>154</ele>
        <time>2020-10-23T19:32:31+02:00</time>
      </trkpt>
      <trkpt lat="44.3464" lon="0.76916">
        <ele>157</ele>
        <time>2020-10-23T19:32:26+02:00</time>
      </trkpt>
      <trkpt lat="44.34662" lon="0.76911">
        <ele>162</ele>
        <time>2020-10-23T19:32:21+02:00</time>
      </trkpt>
      <trkpt lat="44.34686" lon="0.76904">
        <ele>167</ele>
        <time>2020-10-23T19:32:16+02:00</time>
      </trkpt>
      <trkpt lat="44.34711" lon="0.76907">
        <ele>172</ele>
        <time>2020-10-23T19:32:11+02:00</time>
      </trkpt>
      <trkpt lat="44.34722" lon="0.76915">
        <ele>175</ele>
        <time>2020-10-23T19:32:06+02:00</time>
      </trkpt>
      <trkpt lat="44.34711" lon="0.76932">
        <ele>176</ele>
        <time>2020-10-23T19:32:01+02:00</time>
      </trkpt>
      <trkpt lat="44.347" lon="0.76946">
        <ele>176</ele>
        <time>2020-10-23T19:31:56+02:00</time>
      </trkpt>
      <trkpt lat="44.34704" lon="0.76964">
        <ele>181</ele>
        <time>2020-10-23T19:31:51+02:00</time>
      </trkpt>
      <trkpt lat="44.34711" lon="0.76975">
        <ele>184</ele>
        <time>2020-10-23T19:31:46+02:00</time>
      </trkpt>
      <trkpt lat="44.34733" lon="0.76959">
        <ele>186</ele>
        <time>2020-10-23T19:31:41+02:00</time>
      </trkpt>
      <trkpt lat="44.34746" lon="0.7695">
        <ele>187</ele>
        <time>2020-10-23T19:31:36+02:00</time>
      </trkpt>
      <trkpt lat="44.34773" lon="0.76936">
        <ele>189</ele>
        <time>2020-10-23T19:31:31+02:00</time>
      </trkpt>
      <trkpt lat="44.34792" lon="0.76936">
        <ele>192</ele>
        <time>2020-10-23T19:31:26+02:00</time>
      </trkpt>
      <trkpt lat="44.34809" lon="0.76943">
        <ele>197</ele>
        <time>2020-10-23T19:31:21+02:00</time>
      </trkpt>
      <trkpt lat="44.34834" lon="0.76953">
        <ele>202</ele>
        <time>2020-10-23T19:31:16+02:00</time>
      </trkpt>
      <trkpt lat="44.34842" lon="0.76967">
        <ele>204</ele>
        <time>2020-10-23T19:31:11+02:00</time>
      </trkpt>
      <trkpt lat="44.34862" lon="0.76959">
        <ele>203</ele>
        <time>2020-10-23T19:31:06+02:00</time>
      </trkpt>
      <trkpt lat="44.34916" lon="0.76963">
        <ele>205</ele>
        <time>2020-10-23T19:31:01+02:00</time>
      </trkpt>
      <trkpt lat="44.34937" lon="0.76936">
        <ele>203</ele>
        <time>2020-10-23T19:30:56+02:00</time>
      </trkpt>
      <trkpt lat="44.34954" lon="0.7692">
        <ele>202</ele>
        <time>2020-10-23T19:30:51+02:00</time>
      </trkpt>
      <trkpt lat="44.34967" lon="0.769">
        <ele>201</ele>
        <time>2020-10-23T19:30:46+02:00</time>
      </trkpt>
      <trkpt lat="44.34973" lon="0.76904">
        <ele>201</ele>
        <time>2020-10-23T19:30:41+02:00</time>
      </trkpt>
      <trkpt lat="44.34988" lon="0.76916">
        <ele>199</ele>
        <time>2020-10-23T19:30:36+02:00</time>
      </trkpt>
      <trkpt lat="44.35005" lon="0.76928">
        <ele>197</ele>
        <time>2020-10-23T19:30:31+02:00</time>
      </trkpt>
      <trkpt lat="44.3502" lon="0.76942">
        <ele>194</ele>
        <time>2020-10-23T19:30:26+02:00</time>
      </trkpt>
      <trkpt lat="44.35047" lon="0.76957">
        <ele>189</ele>
        <time>2020-10-23T19:30:21+02:00</time>
      </trkpt>
      <trkpt lat="44.35073" lon="0.76971">
        <ele>184</ele>
        <time>2020-10-23T19:30:16+02:00</time>
      </trkpt>
      <trkpt lat="44.35082" lon="0.76957">
        <ele>185</ele>
        <time>2020-10-23T19:30:11+02:00</time>
      </trkpt>
      <trkpt lat="44.35102" lon="0.76923">
        <ele>184</ele>
        <time>2020-10-23T19:30:06+02:00</time>
      </trkpt>
      <trkpt lat="44.35116" lon="0.76903">
        <ele>184</ele>
        <time>2020-10-23T19:30:01+02:00</time>
      </trkpt>
      <trkpt lat="44.35123" lon="0.76884">
        <ele>184</ele>
        <time>2020-10-23T19:29:56+02:00</time>
      </trkpt>
      <trkpt lat="44.35133" lon="0.76864">
        <ele>185</ele>
        <time>2020-10-23T19:29:51+02:00</time>
      </trkpt>
      <trkpt lat="44.35151" lon="0.76843">
        <ele>185</ele>
        <time>2020-10-23T19:29:46+02:00</time>
      </trkpt>
      <trkpt lat="44.35164" lon="0.76831">
        <ele>186</ele>
        <time>2020-10-23T19:29:41+02:00</time>
      </trkpt>
      <trkpt lat="44.3519" lon="0.76821">
        <ele>186</ele>
        <time>2020-10-23T19:29:36+02:00</time>
      </trkpt>
      <trkpt lat="44.35208" lon="0.76815">
        <ele>185</ele>
        <time>2020-10-23T19:29:31+02:00</time>
      </trkpt>
      <trkpt lat="44.35231" lon="0.76813">
        <ele>185</ele>
        <time>2020-10-23T19:29:26+02:00</time>
      </trkpt>
      <trkpt lat="44.3525" lon="0.76817">
        <ele>183</ele>
        <time>2020-10-23T19:29:21+02:00</time>
      </trkpt>
      <trkpt lat="44.35279" lon="0.76833">
        <ele>183</ele>
        <time>2020-10-23T19:29:16+02:00</time>
      </trkpt>
      <trkpt lat="44.35312" lon="0.76853">
        <ele>184</ele>
        <time>2020-10-23T19:29:11+02:00</time>
      </trkpt>
      <trkpt lat="44.35343" lon="0.76891">
        <ele>183</ele>
        <time>2020-10-23T19:29:06+02:00</time>
      </trkpt>
      <trkpt lat="44.35366" lon="0.76925">
        <ele>182</ele>
        <time>2020-10-23T19:29:01+02:00</time>
      </trkpt>
      <trkpt lat="44.35387" lon="0.76961">
        <ele>182</ele>
        <time>2020-10-23T19:28:56+02:00</time>
      </trkpt>
      <trkpt lat="44.35409" lon="0.76996">
        <ele>182</ele>
        <time>2020-10-23T19:28:51+02:00</time>
      </trkpt>
      <trkpt lat="44.35419" lon="0.77001">
        <ele>183</ele>
        <time>2020-10-23T19:28:46+02:00</time>
      </trkpt>
      <trkpt lat="44.35449" lon="0.77012">
        <ele>181</ele>
        <time>2020-10-23T19:28:41+02:00</time>
      </trkpt>
      <trkpt lat="44.35486" lon="0.77026">
        <ele>179</ele>
        <time>2020-10-23T19:28:36+02:00</time>
      </trkpt>
      <trkpt lat="44.35513" lon="0.77033">
        <ele>177</ele>
        <time>2020-10-23T19:28:31+02:00</time>
      </trkpt>
      <trkpt lat="44.35555" lon="0.77042">
        <ele>175</ele>
        <time>2020-10-23T19:28:26+02:00</time>
      </trkpt>
      <trkpt lat="44.35564" lon="0.77055">
        <ele>173</ele>
        <time>2020-10-23T19:28:21+02:00</time>
      </trkpt>
      <trkpt lat="44.35579" lon="0.77081">
        <ele>169</ele>
        <time>2020-10-23T19:28:16+02:00</time>
      </trkpt>
      <trkpt lat="44.3559" lon="0.77106">
        <ele>164</ele>
        <time>2020-10-23T19:28:11+02:00</time>
      </trkpt>
      <trkpt lat="44.35603" lon="0.7709">
        <ele>164</ele>
        <time>2020-10-23T19:28:06+02:00</time>
      </trkpt>
      <trkpt lat="44.35616" lon="0.77072">
        <ele>164</ele>
        <time>2020-10-23T19:28:01+02:00</time>
      </trkpt>
      <trkpt lat="44.35627" lon="0.77059">
        <ele>163</ele>
        <time>2020-10-23T19:27:56+02:00</time>
      </trkpt>
      <trkpt lat="44.35635" lon="0.77043">
        <ele>164</ele>
        <time>2020-10-23T19:27:51+02:00</time>
      </trkpt>
      <trkpt lat="44.35639" lon="0.77026">
        <ele>165</ele>
        <time>2020-10-23T19:27:46+02:00</time>
      </trkpt>
      <trkpt lat="44.3564" lon="0.77005">
        <ele>166</ele>
        <time>2020-10-23T19:27:41+02:00</time>
      </trkpt>
      <trkpt lat="44.35633" lon="0.76977">
        <ele>168</ele>
        <time>2020-10-23T19:27:36+02:00</time>
      </trkpt>
      <trkpt lat="44.35631" lon="0.76951">
        <ele>168</ele>
        <time>2020-10-23T19:27:31+02:00</time>
      </trkpt>
      <trkpt lat="44.35642" lon="0.7692">
        <ele>164</ele>
        <time>2020-10-23T19:27:26+02:00</time>
      </trkpt>
      <trkpt lat="44.35649" lon="0.76903">
        <ele>161</ele>
        <time>2020-10-23T19:27:21+02:00</time>
      </trkpt>
      <trkpt lat="44.35653" lon="0.76888">
        <ele>159</ele>
        <time>2020-10-23T19:27:16+02:00</time>
      </trkpt>
      <trkpt lat="44.35655" lon="0.7688">
        <ele>158</ele>
        <time>2020-10-23T19:27:11+02:00</time>
      </trkpt>
      <trkpt lat="44.35636" lon="0.76857">
        <ele>163</ele>
        <time>2020-10-23T19:27:06+02:00</time>
      </trkpt>
      <trkpt lat="44.35621" lon="0.76835">
        <ele>167</ele>
        <time>2020-10-23T19:27:01+02:00</time>
      </trkpt>
      <trkpt lat="44.35597" lon="0.76809">
        <ele>174</ele>
        <time>2020-10-23T19:26:56+02:00</time>
      </trkpt>
      <trkpt lat="44.35583" lon="0.76785">
        <ele>176</ele>
        <time>2020-10-23T19:26:51+02:00</time>
      </trkpt>
      <trkpt lat="44.35567" lon="0.76758">
        <ele>177</ele>
        <time>2020-10-23T19:26:46+02:00</time>
      </trkpt>
      <trkpt lat="44.35557" lon="0.76741">
        <ele>178</ele>
        <time>2020-10-23T19:26:41+02:00</time>
      </trkpt>
      <trkpt lat="44.35555" lon="0.76724">
        <ele>179</ele>
        <time>2020-10-23T19:26:36+02:00</time>
      </trkpt>
      <trkpt lat="44.35549" lon="0.7671">
        <ele>180</ele>
        <time>2020-10-23T19:26:31+02:00</time>
      </trkpt>
      <trkpt lat="44.35547" lon="0.76687">
        <ele>180</ele>
        <time>2020-10-23T19:26:26+02:00</time>
      </trkpt>
      <trkpt lat="44.35551" lon="0.7666">
        <ele>179</ele>
        <time>2020-10-23T19:26:21+02:00</time>
      </trkpt>
      <trkpt lat="44.35559" lon="0.76636">
        <ele>178</ele>
        <time>2020-10-23T19:26:16+02:00</time>
      </trkpt>
      <trkpt lat="44.35565" lon="0.76624">
        <ele>178</ele>
        <time>2020-10-23T19:26:11+02:00</time>
      </trkpt>
      <trkpt lat="44.35579" lon="0.76601">
        <ele>176</ele>
        <time>2020-10-23T19:26:06+02:00</time>
      </trkpt>
      <trkpt lat="44.35603" lon="0.76572">
        <ele>175</ele>
        <time>2020-10-23T19:26:01+02:00</time>
      </trkpt>
      <trkpt lat="44.35625" lon="0.76544">
        <ele>176</ele>
        <time>2020-10-23T19:25:56+02:00</time>
      </trkpt>
      <trkpt lat="44.35642" lon="0.76528">
        <ele>177</ele>
        <time>2020-10-23T19:25:51+02:00</time>
      </trkpt>
      <trkpt lat="44.35656" lon="0.76507">
        <ele>179</ele>
        <time>2020-10-23T19:25:46+02:00</time>
      </trkpt>
      <trkpt lat="44.35675" lon="0.76497">
        <ele>181</ele>
        <time>2020-10-23T19:25:41+02:00</time>
      </trkpt>
      <trkpt lat="44.35696" lon="0.76496">
        <ele>181</ele>
        <time>2020-10-23T19:25:36+02:00</time>
      </trkpt>
      <trkpt lat="44.35713" lon="0.76486">
        <ele>183</ele>
        <time>2020-10-23T19:25:31+02:00</time>
      </trkpt>
      <trkpt lat="44.35724" lon="0.7647">
        <ele>185</ele>
        <time>2020-10-23T19:25:26+02:00</time>
      </trkpt>
      <trkpt lat="44.35746" lon="0.7644">
        <ele>188</ele>
        <time>2020-10-23T19:25:21+02:00</time>
      </trkpt>
      <trkpt lat="44.35766" lon="0.76406">
        <ele>192</ele>
        <time>2020-10-23T19:25:16+02:00</time>
      </trkpt>
      <trkpt lat="44.35779" lon="0.76376">
        <ele>193</ele>
        <time>2020-10-23T19:25:11+02:00</time>
      </trkpt>
      <trkpt lat="44.35785" lon="0.76355">
        <ele>193</ele>
        <time>2020-10-23T19:25:06+02:00</time>
      </trkpt>
      <trkpt lat="44.35782" lon="0.76328">
        <ele>194</ele>
        <time>2020-10-23T19:25:01+02:00</time>
      </trkpt>
      <trkpt lat="44.35769" lon="0.763">
        <ele>193</ele>
        <time>2020-10-23T19:24:56+02:00</time>
      </trkpt>
      <trkpt lat="44.35759" lon="0.76273">
        <ele>192</ele>
        <time>2020-10-23T19:24:51+02:00</time>
      </trkpt>
      <trkpt lat="44.35738" lon="0.76256">
        <ele>191</ele>
        <time>2020-10-23T19:24:46+02:00</time>
      </trkpt>
      <trkpt lat="44.35711" lon="0.76238">
        <ele>190</ele>
        <time>2020-10-23T19:24:41+02:00</time>
      </trkpt>
      <trkpt lat="44.35679" lon="0.76228">
        <ele>189</ele>
        <time>2020-10-23T19:24:36+02:00</time>
      </trkpt>
      <trkpt lat="44.35633" lon="0.76224">
        <ele>189</ele>
        <time>2020-10-23T19:24:31+02:00</time>
      </trkpt>
      <trkpt lat="44.35592" lon="0.76218">
        <ele>188</ele>
        <time>2020-10-23T19:24:26+02:00</time>
      </trkpt>
      <trkpt lat="44.35539" lon="0.76215">
        <ele>189</ele>
        <time>2020-10-23T19:24:21+02:00</time>
      </trkpt>
      <trkpt lat="44.35472" lon="0.76209">
        <ele>191</ele>
        <time>2020-10-23T19:24:16+02:00</time>
      </trkpt>
      <trkpt lat="44.35471" lon="0.76184">
        <ele>191</ele>
        <time>2020-10-23T19:24:11+02:00</time>
      </trkpt>
      <trkpt lat="44.35475" lon="0.76165">
        <ele>191</ele>
        <time>2020-10-23T19:24:06+02:00</time>
      </trkpt>
      <trkpt lat="44.35511" lon="0.76157">
        <ele>188</ele>
        <time>2020-10-23T19:24:01+02:00</time>
      </trkpt>
      <trkpt lat="44.35548" lon="0.76147">
        <ele>183</ele>
        <time>2020-10-23T19:23:56+02:00</time>
      </trkpt>
      <trkpt lat="44.35579" lon="0.76137">
        <ele>179</ele>
        <time>2020-10-23T19:23:51+02:00</time>
      </trkpt>
      <trkpt lat="44.35599" lon="0.7613">
        <ele>177</ele>
        <time>2020-10-23T19:23:46+02:00</time>
      </trkpt>
      <trkpt lat="44.35636" lon="0.76121">
        <ele>174</ele>
        <time>2020-10-23T19:23:41+02:00</time>
      </trkpt>
      <trkpt lat="44.35669" lon="0.76111">
        <ele>171</ele>
        <time>2020-10-23T19:23:36+02:00</time>
      </trkpt>
      <trkpt lat="44.35698" lon="0.76099">
        <ele>168</ele>
        <time>2020-10-23T19:23:31+02:00</time>
      </trkpt>
      <trkpt lat="44.35728" lon="0.76087">
        <ele>164</ele>
        <time>2020-10-23T19:23:26+02:00</time>
      </trkpt>
      <trkpt lat="44.35747" lon="0.76077">
        <ele>162</ele>
        <time>2020-10-23T19:23:21+02:00</time>
      </trkpt>
      <trkpt lat="44.35767" lon="0.76073">
        <ele>159</ele>
        <time>2020-10-23T19:23:16+02:00</time>
      </trkpt>
      <trkpt lat="44.35789" lon="0.7607">
        <ele>156</ele>
        <time>2020-10-23T19:23:11+02:00</time>
      </trkpt>
      <trkpt lat="44.35808" lon="0.76069">
        <ele>154</ele>
        <time>2020-10-23T19:23:06+02:00</time>
      </trkpt>
      <trkpt lat="44.35834" lon="0.7607">
        <ele>152</ele>
        <time>2020-10-23T19:23:01+02:00</time>
      </trkpt>
      <trkpt lat="44.35843" lon="0.76063">
        <ele>150</ele>
        <time>2020-10-23T19:22:56+02:00</time>
      </trkpt>
    </trkseg>
  </trk>
</gpx>